sensor_id;sensor_type;location;lat;lon;timestamp;temperature;humidity
10121;DHT22;5100;45.176;5.714;2023-08-24T00:01:24;33.10;51.30
10121;DHT22;5100;45.176;5.714;2023-08-24T00:03:50;33.10;51.30
10121;DHT22;5100;45.176;5.714;2023-08-24T00:06:16;33.10;51.30
10121;DHT22;5100;45.176;5.714;2023-08-24T00:08:42;33.00;51.30
10121;DHT22;5100;45.176;5.714;2023-08-24T00:11:09;33.00;51.30
10121;DHT22;5100;45.176;5.714;2023-08-24T00:13:43;33.00;51.30
10121;DHT22;5100;45.176;5.714;2023-08-24T00:16:18;33.00;51.30
10121;DHT22;5100;45.176;5.714;2023-08-24T00:18:45;33.00;51.30
10121;DHT22;5100;45.176;5.714;2023-08-24T00:21:13;32.90;51.30
10121;DHT22;5100;45.176;5.714;2023-08-24T00:23:39;32.90;51.10
10121;DHT22;5100;45.176;5.714;2023-08-24T00:26:05;32.90;51.10
10121;DHT22;5100;45.176;5.714;2023-08-24T00:28:31;32.90;51.00
10121;DHT22;5100;45.176;5.714;2023-08-24T00:30:57;32.90;51.00
10121;DHT22;5100;45.176;5.714;2023-08-24T00:33:23;32.90;51.00
10121;DHT22;5100;45.176;5.714;2023-08-24T00:35:50;32.80;51.10
10121;DHT22;5100;45.176;5.714;2023-08-24T00:38:16;32.80;51.10
10121;DHT22;5100;45.176;5.714;2023-08-24T00:40:42;32.80;51.10
10121;DHT22;5100;45.176;5.714;2023-08-24T00:43:10;32.80;51.10
10121;DHT22;5100;45.176;5.714;2023-08-24T00:45:36;32.80;51.20
10121;DHT22;5100;45.176;5.714;2023-08-24T00:48:03;32.80;51.20
10121;DHT22;5100;45.176;5.714;2023-08-24T00:50:29;32.80;51.20
10121;DHT22;5100;45.176;5.714;2023-08-24T00:52:56;32.70;51.30
10121;DHT22;5100;45.176;5.714;2023-08-24T00:55:22;32.70;51.40
10121;DHT22;5100;45.176;5.714;2023-08-24T00:57:48;32.70;51.50
10121;DHT22;5100;45.176;5.714;2023-08-24T01:00:16;32.70;51.50
10121;DHT22;5100;45.176;5.714;2023-08-24T01:02:42;32.70;51.60
10121;DHT22;5100;45.176;5.714;2023-08-24T01:05:08;32.70;51.60
10121;DHT22;5100;45.176;5.714;2023-08-24T01:07:37;32.70;51.70
10121;DHT22;5100;45.176;5.714;2023-08-24T01:10:04;32.70;51.90
10121;DHT22;5100;45.176;5.714;2023-08-24T01:13:00;32.60;52.10
10121;DHT22;5100;45.176;5.714;2023-08-24T01:18:14;32.60;52.30
10121;DHT22;5100;45.176;5.714;2023-08-24T01:20:42;32.60;52.30
10121;DHT22;5100;45.176;5.714;2023-08-24T01:26:11;32.60;52.30
10121;DHT22;5100;45.176;5.714;2023-08-24T01:28:37;32.50;52.30
10121;DHT22;5100;45.176;5.714;2023-08-24T01:31:06;32.50;52.40
10121;DHT22;5100;45.176;5.714;2023-08-24T01:33:33;32.50;52.50
10121;DHT22;5100;45.176;5.714;2023-08-24T01:35:59;32.50;52.70
10121;DHT22;5100;45.176;5.714;2023-08-24T01:38:27;32.50;52.70
10121;DHT22;5100;45.176;5.714;2023-08-24T01:43:39;32.40;52.60
10121;DHT22;5100;45.176;5.714;2023-08-24T01:46:07;32.40;52.50
10121;DHT22;5100;45.176;5.714;2023-08-24T01:48:34;32.40;52.50
10121;DHT22;5100;45.176;5.714;2023-08-24T01:51:02;32.40;52.50
10121;DHT22;5100;45.176;5.714;2023-08-24T01:53:30;32.40;52.40
10121;DHT22;5100;45.176;5.714;2023-08-24T01:55:57;32.40;52.40
10121;DHT22;5100;45.176;5.714;2023-08-24T01:58:23;32.30;52.30
10121;DHT22;5100;45.176;5.714;2023-08-24T02:00:50;32.30;52.20
10121;DHT22;5100;45.176;5.714;2023-08-24T02:03:16;32.30;52.20
10121;DHT22;5100;45.176;5.714;2023-08-24T02:05:42;32.30;52.10
10121;DHT22;5100;45.176;5.714;2023-08-24T02:08:08;32.30;52.10
10121;DHT22;5100;45.176;5.714;2023-08-24T02:10:34;32.30;52.20
10121;DHT22;5100;45.176;5.714;2023-08-24T02:13:00;32.30;52.20
10121;DHT22;5100;45.176;5.714;2023-08-24T02:15:26;32.20;52.20
10121;DHT22;5100;45.176;5.714;2023-08-24T02:17:52;32.20;52.20
10121;DHT22;5100;45.176;5.714;2023-08-24T02:20:18;32.20;52.20
10121;DHT22;5100;45.176;5.714;2023-08-24T02:22:44;32.20;52.20
10121;DHT22;5100;45.176;5.714;2023-08-24T02:25:10;32.20;52.20
10121;DHT22;5100;45.176;5.714;2023-08-24T02:27:37;32.20;52.30
10121;DHT22;5100;45.176;5.714;2023-08-24T02:30:03;32.20;52.30
10121;DHT22;5100;45.176;5.714;2023-08-24T02:32:32;32.10;52.40
10121;DHT22;5100;45.176;5.714;2023-08-24T02:34:58;32.10;52.40
10121;DHT22;5100;45.176;5.714;2023-08-24T02:37:24;32.10;52.40
10121;DHT22;5100;45.176;5.714;2023-08-24T02:39:50;32.10;52.50
10121;DHT22;5100;45.176;5.714;2023-08-24T02:42:16;32.10;52.50
10121;DHT22;5100;45.176;5.714;2023-08-24T02:44:42;32.10;52.60
10121;DHT22;5100;45.176;5.714;2023-08-24T02:47:11;32.10;52.60
10121;DHT22;5100;45.176;5.714;2023-08-24T02:49:37;32.00;52.70
10121;DHT22;5100;45.176;5.714;2023-08-24T02:52:03;32.00;52.70
10121;DHT22;5100;45.176;5.714;2023-08-24T02:54:29;32.00;52.70
10121;DHT22;5100;45.176;5.714;2023-08-24T02:56:55;32.00;52.70
10121;DHT22;5100;45.176;5.714;2023-08-24T02:59:21;32.00;52.60
10121;DHT22;5100;45.176;5.714;2023-08-24T03:01:48;31.90;52.60
10121;DHT22;5100;45.176;5.714;2023-08-24T03:04:14;31.90;52.60
10121;DHT22;5100;45.176;5.714;2023-08-24T03:06:40;31.90;52.60
10121;DHT22;5100;45.176;5.714;2023-08-24T03:09:06;31.90;52.50
10121;DHT22;5100;45.176;5.714;2023-08-24T03:11:32;31.90;52.50
10121;DHT22;5100;45.176;5.714;2023-08-24T03:13:58;31.80;52.40
10121;DHT22;5100;45.176;5.714;2023-08-24T03:16:25;31.80;52.40
10121;DHT22;5100;45.176;5.714;2023-08-24T03:18:52;31.80;52.40
10121;DHT22;5100;45.176;5.714;2023-08-24T03:21:18;31.80;52.20
10121;DHT22;5100;45.176;5.714;2023-08-24T03:23:45;31.80;52.10
10121;DHT22;5100;45.176;5.714;2023-08-24T03:26:11;31.80;52.10
10121;DHT22;5100;45.176;5.714;2023-08-24T03:28:36;31.70;52.10
10121;DHT22;5100;45.176;5.714;2023-08-24T03:31:03;31.70;51.90
10121;DHT22;5100;45.176;5.714;2023-08-24T03:33:29;31.70;51.90
10121;DHT22;5100;45.176;5.714;2023-08-24T03:35:56;31.70;51.90
10121;DHT22;5100;45.176;5.714;2023-08-24T03:38:22;31.70;51.90
10121;DHT22;5100;45.176;5.714;2023-08-24T03:40:48;31.70;52.10
10121;DHT22;5100;45.176;5.714;2023-08-24T03:43:14;31.60;52.10
10121;DHT22;5100;45.176;5.714;2023-08-24T03:45:42;31.60;52.10
10121;DHT22;5100;45.176;5.714;2023-08-24T03:48:10;31.60;52.20
10121;DHT22;5100;45.176;5.714;2023-08-24T03:50:36;31.60;52.30
10121;DHT22;5100;45.176;5.714;2023-08-24T03:53:03;31.60;52.50
10121;DHT22;5100;45.176;5.714;2023-08-24T03:55:29;31.60;52.60
10121;DHT22;5100;45.176;5.714;2023-08-24T03:57:55;31.50;53.00
10121;DHT22;5100;45.176;5.714;2023-08-24T04:00:24;31.50;53.70
10121;DHT22;5100;45.176;5.714;2023-08-24T04:02:50;31.50;54.20
10121;DHT22;5100;45.176;5.714;2023-08-24T04:05:17;31.50;54.50
10121;DHT22;5100;45.176;5.714;2023-08-24T04:07:43;31.50;54.50
10121;DHT22;5100;45.176;5.714;2023-08-24T04:10:10;31.50;54.40
10121;DHT22;5100;45.176;5.714;2023-08-24T04:12:37;31.50;54.30
10121;DHT22;5100;45.176;5.714;2023-08-24T04:15:03;31.40;54.10
10121;DHT22;5100;45.176;5.714;2023-08-24T04:17:30;31.40;54.00
10121;DHT22;5100;45.176;5.714;2023-08-24T04:19:56;31.40;54.00
10121;DHT22;5100;45.176;5.714;2023-08-24T04:22:22;31.40;53.70
10121;DHT22;5100;45.176;5.714;2023-08-24T04:24:48;31.40;53.50
10121;DHT22;5100;45.176;5.714;2023-08-24T04:27:14;31.40;53.40
10121;DHT22;5100;45.176;5.714;2023-08-24T04:29:40;31.40;53.40
10121;DHT22;5100;45.176;5.714;2023-08-24T04:32:06;31.40;53.60
10121;DHT22;5100;45.176;5.714;2023-08-24T04:34:33;31.40;54.00
10121;DHT22;5100;45.176;5.714;2023-08-24T04:36:59;31.40;54.10
10121;DHT22;5100;45.176;5.714;2023-08-24T04:39:27;31.40;53.90
10121;DHT22;5100;45.176;5.714;2023-08-24T04:41:55;31.30;53.50
10121;DHT22;5100;45.176;5.714;2023-08-24T04:44:22;31.30;53.30
10121;DHT22;5100;45.176;5.714;2023-08-24T04:46:48;31.30;53.10
10121;DHT22;5100;45.176;5.714;2023-08-24T04:49:14;31.30;53.10
10121;DHT22;5100;45.176;5.714;2023-08-24T04:51:40;31.30;53.10
10121;DHT22;5100;45.176;5.714;2023-08-24T04:54:07;31.30;53.10
10121;DHT22;5100;45.176;5.714;2023-08-24T04:56:33;31.20;53.10
10121;DHT22;5100;45.176;5.714;2023-08-24T04:58:59;31.20;53.20
10121;DHT22;5100;45.176;5.714;2023-08-24T05:01:27;31.20;53.20
10121;DHT22;5100;45.176;5.714;2023-08-24T05:03:53;31.20;53.30
10121;DHT22;5100;45.176;5.714;2023-08-24T05:06:20;31.20;53.40
10121;DHT22;5100;45.176;5.714;2023-08-24T05:08:47;31.20;53.50
10121;DHT22;5100;45.176;5.714;2023-08-24T05:11:16;31.20;53.50
10121;DHT22;5100;45.176;5.714;2023-08-24T05:13:42;31.20;53.50
10121;DHT22;5100;45.176;5.714;2023-08-24T05:16:09;31.20;53.40
10121;DHT22;5100;45.176;5.714;2023-08-24T05:18:36;31.20;53.20
10121;DHT22;5100;45.176;5.714;2023-08-24T05:21:05;31.20;53.00
10121;DHT22;5100;45.176;5.714;2023-08-24T05:23:33;31.10;52.90
10121;DHT22;5100;45.176;5.714;2023-08-24T05:26:00;31.20;52.80
10121;DHT22;5100;45.176;5.714;2023-08-24T05:28:27;31.20;52.70
10121;DHT22;5100;45.176;5.714;2023-08-24T05:30:54;31.20;52.80
10121;DHT22;5100;45.176;5.714;2023-08-24T05:33:21;31.20;52.80
10121;DHT22;5100;45.176;5.714;2023-08-24T05:35:51;31.20;52.70
10121;DHT22;5100;45.176;5.714;2023-08-24T05:38:18;31.20;52.80
10121;DHT22;5100;45.176;5.714;2023-08-24T05:40:47;31.20;52.70
10121;DHT22;5100;45.176;5.714;2023-08-24T05:43:13;31.20;52.50
10121;DHT22;5100;45.176;5.714;2023-08-24T05:45:40;31.20;52.50
10121;DHT22;5100;45.176;5.714;2023-08-24T05:48:06;31.30;52.50
10121;DHT22;5100;45.176;5.714;2023-08-24T05:50:33;31.30;52.40
10121;DHT22;5100;45.176;5.714;2023-08-24T05:52:59;31.30;52.40
10121;DHT22;5100;45.176;5.714;2023-08-24T05:55:25;31.40;52.40
10121;DHT22;5100;45.176;5.714;2023-08-24T05:57:51;31.40;52.50
10121;DHT22;5100;45.176;5.714;2023-08-24T06:00:18;31.50;52.70
10121;DHT22;5100;45.176;5.714;2023-08-24T06:02:45;31.50;52.50
10121;DHT22;5100;45.176;5.714;2023-08-24T06:05:11;31.60;52.30
10121;DHT22;5100;45.176;5.714;2023-08-24T06:07:37;31.60;52.20
10121;DHT22;5100;45.176;5.714;2023-08-24T06:10:03;31.60;51.90
10121;DHT22;5100;45.176;5.714;2023-08-24T06:12:29;31.70;51.50
10121;DHT22;5100;45.176;5.714;2023-08-24T06:14:55;31.70;51.00
10121;DHT22;5100;45.176;5.714;2023-08-24T06:17:21;31.80;50.50
10121;DHT22;5100;45.176;5.714;2023-08-24T06:19:47;31.80;50.40
10121;DHT22;5100;45.176;5.714;2023-08-24T06:22:13;31.90;50.30
10121;DHT22;5100;45.176;5.714;2023-08-24T06:24:39;31.90;50.30
10121;DHT22;5100;45.176;5.714;2023-08-24T06:27:05;32.00;50.20
10121;DHT22;5100;45.176;5.714;2023-08-24T06:29:31;32.00;50.00
10121;DHT22;5100;45.176;5.714;2023-08-24T06:31:57;32.10;49.90
10121;DHT22;5100;45.176;5.714;2023-08-24T06:34:23;32.10;49.80
10121;DHT22;5100;45.176;5.714;2023-08-24T06:36:50;32.10;49.70
10121;DHT22;5100;45.176;5.714;2023-08-24T06:39:16;32.20;49.70
10121;DHT22;5100;45.176;5.714;2023-08-24T06:41:42;32.20;49.60
10121;DHT22;5100;45.176;5.714;2023-08-24T06:44:09;32.30;49.60
10121;DHT22;5100;45.176;5.714;2023-08-24T06:46:35;32.30;49.60
10121;DHT22;5100;45.176;5.714;2023-08-24T06:49:01;32.40;49.60
10121;DHT22;5100;45.176;5.714;2023-08-24T06:51:27;32.40;49.60
10121;DHT22;5100;45.176;5.714;2023-08-24T06:53:56;32.50;49.70
10121;DHT22;5100;45.176;5.714;2023-08-24T06:56:22;32.50;50.30
10121;DHT22;5100;45.176;5.714;2023-08-24T06:58:48;32.50;50.80
10121;DHT22;5100;45.176;5.714;2023-08-24T07:01:15;32.60;51.00
10121;DHT22;5100;45.176;5.714;2023-08-24T07:03:41;32.60;51.20
10121;DHT22;5100;45.176;5.714;2023-08-24T07:06:07;32.60;51.40
10121;DHT22;5100;45.176;5.714;2023-08-24T07:08:34;32.70;51.40
10121;DHT22;5100;45.176;5.714;2023-08-24T07:11:01;32.70;51.40
10121;DHT22;5100;45.176;5.714;2023-08-24T07:13:27;32.70;51.40
10121;DHT22;5100;45.176;5.714;2023-08-24T07:15:54;32.70;51.40
10121;DHT22;5100;45.176;5.714;2023-08-24T07:18:21;32.70;51.30
10121;DHT22;5100;45.176;5.714;2023-08-24T07:20:47;32.80;51.20
10121;DHT22;5100;45.176;5.714;2023-08-24T07:23:14;32.80;51.10
10121;DHT22;5100;45.176;5.714;2023-08-24T07:25:40;32.80;51.10
10121;DHT22;5100;45.176;5.714;2023-08-24T07:28:07;32.80;51.10
10121;DHT22;5100;45.176;5.714;2023-08-24T07:30:35;32.80;51.00
10121;DHT22;5100;45.176;5.714;2023-08-24T07:33:02;32.80;50.80
10121;DHT22;5100;45.176;5.714;2023-08-24T07:35:31;32.80;50.40
10121;DHT22;5100;45.176;5.714;2023-08-24T07:37:58;32.80;50.30
10121;DHT22;5100;45.176;5.714;2023-08-24T07:40:24;32.80;50.30
10121;DHT22;5100;45.176;5.714;2023-08-24T07:42:53;32.90;50.60
10121;DHT22;5100;45.176;5.714;2023-08-24T07:45:20;32.90;50.60
10121;DHT22;5100;45.176;5.714;2023-08-24T07:47:46;32.90;50.50
10121;DHT22;5100;45.176;5.714;2023-08-24T07:50:12;32.90;50.40
10121;DHT22;5100;45.176;5.714;2023-08-24T07:52:39;32.90;50.50
10121;DHT22;5100;45.176;5.714;2023-08-24T07:55:06;32.90;50.40
10121;DHT22;5100;45.176;5.714;2023-08-24T07:57:36;32.90;50.40
10121;DHT22;5100;45.176;5.714;2023-08-24T08:00:03;32.90;50.50
10121;DHT22;5100;45.176;5.714;2023-08-24T08:02:38;33.00;50.40
10121;DHT22;5100;45.176;5.714;2023-08-24T08:05:05;33.00;50.30
10121;DHT22;5100;45.176;5.714;2023-08-24T08:07:33;33.00;50.30
10121;DHT22;5100;45.176;5.714;2023-08-24T08:09:59;33.00;50.50
10121;DHT22;5100;45.176;5.714;2023-08-24T08:12:26;33.00;50.70
10121;DHT22;5100;45.176;5.714;2023-08-24T08:14:52;33.00;50.70
10121;DHT22;5100;45.176;5.714;2023-08-24T08:17:18;33.00;50.60
10121;DHT22;5100;45.176;5.714;2023-08-24T08:19:44;33.00;50.70
10121;DHT22;5100;45.176;5.714;2023-08-24T08:22:12;33.10;50.60
10121;DHT22;5100;45.176;5.714;2023-08-24T08:24:38;33.10;50.60
10121;DHT22;5100;45.176;5.714;2023-08-24T08:27:04;33.10;50.70
10121;DHT22;5100;45.176;5.714;2023-08-24T08:29:30;33.10;50.70
10121;DHT22;5100;45.176;5.714;2023-08-24T08:31:56;33.10;50.70
10121;DHT22;5100;45.176;5.714;2023-08-24T08:34:22;33.10;50.50
10121;DHT22;5100;45.176;5.714;2023-08-24T08:36:48;33.20;50.10
10121;DHT22;5100;45.176;5.714;2023-08-24T08:39:14;33.20;50.10
10121;DHT22;5100;45.176;5.714;2023-08-24T08:41:44;33.20;50.00
10121;DHT22;5100;45.176;5.714;2023-08-24T08:44:13;33.20;49.90
10121;DHT22;5100;45.176;5.714;2023-08-24T08:46:41;33.20;49.40
10121;DHT22;5100;45.176;5.714;2023-08-24T08:49:08;33.30;49.30
10121;DHT22;5100;45.176;5.714;2023-08-24T08:51:36;33.30;49.30
10121;DHT22;5100;45.176;5.714;2023-08-24T08:54:03;33.30;49.20
10121;DHT22;5100;45.176;5.714;2023-08-24T08:56:32;33.30;49.00
10121;DHT22;5100;45.176;5.714;2023-08-24T08:58:59;33.30;48.80
10121;DHT22;5100;45.176;5.714;2023-08-24T09:01:27;33.30;48.60
10121;DHT22;5100;45.176;5.714;2023-08-24T09:03:54;33.40;48.70
10121;DHT22;5100;45.176;5.714;2023-08-24T09:06:23;33.40;48.80
10121;DHT22;5100;45.176;5.714;2023-08-24T09:08:52;33.40;48.90
10121;DHT22;5100;45.176;5.714;2023-08-24T09:11:19;33.40;49.00
10121;DHT22;5100;45.176;5.714;2023-08-24T09:13:45;33.50;48.90
10121;DHT22;5100;45.176;5.714;2023-08-24T09:16:11;33.50;48.80
10121;DHT22;5100;45.176;5.714;2023-08-24T09:18:46;33.50;48.90
10121;DHT22;5100;45.176;5.714;2023-08-24T09:21:14;33.50;49.10
10121;DHT22;5100;45.176;5.714;2023-08-24T09:23:44;33.50;49.00
10121;DHT22;5100;45.176;5.714;2023-08-24T09:26:14;33.50;48.90
10121;DHT22;5100;45.176;5.714;2023-08-24T09:28:42;33.50;48.90
10121;DHT22;5100;45.176;5.714;2023-08-24T09:31:11;33.60;49.10
10121;DHT22;5100;45.176;5.714;2023-08-24T09:33:38;33.60;49.20
10121;DHT22;5100;45.176;5.714;2023-08-24T09:36:06;33.60;49.30
10121;DHT22;5100;45.176;5.714;2023-08-24T09:38:33;33.60;49.40
10121;DHT22;5100;45.176;5.714;2023-08-24T09:41:02;33.60;49.10
10121;DHT22;5100;45.176;5.714;2023-08-24T09:43:30;33.70;48.80
10121;DHT22;5100;45.176;5.714;2023-08-24T09:45:56;33.70;48.80
10121;DHT22;5100;45.176;5.714;2023-08-24T09:48:23;33.70;48.90
10121;DHT22;5100;45.176;5.714;2023-08-24T09:50:50;33.70;49.00
10121;DHT22;5100;45.176;5.714;2023-08-24T09:53:20;33.70;48.90
10121;DHT22;5100;45.176;5.714;2023-08-24T09:56:00;33.80;48.90
10121;DHT22;5100;45.176;5.714;2023-08-24T09:58:27;33.80;48.90
10121;DHT22;5100;45.176;5.714;2023-08-24T10:00:54;33.80;48.70
10121;DHT22;5100;45.176;5.714;2023-08-24T10:03:27;33.80;48.50
10121;DHT22;5100;45.176;5.714;2023-08-24T10:05:57;33.80;48.50
10121;DHT22;5100;45.176;5.714;2023-08-24T10:08:39;33.80;48.30
10121;DHT22;5100;45.176;5.714;2023-08-24T10:11:06;33.90;48.20
10121;DHT22;5100;45.176;5.714;2023-08-24T10:13:41;33.90;48.10
10121;DHT22;5100;45.176;5.714;2023-08-24T10:16:12;33.90;48.00
10121;DHT22;5100;45.176;5.714;2023-08-24T10:18:40;33.90;47.90
10121;DHT22;5100;45.176;5.714;2023-08-24T10:21:08;33.90;47.70
10121;DHT22;5100;45.176;5.714;2023-08-24T10:23:40;34.00;47.60
10121;DHT22;5100;45.176;5.714;2023-08-24T10:26:08;34.00;47.60
10121;DHT22;5100;45.176;5.714;2023-08-24T10:28:35;34.00;47.40
10121;DHT22;5100;45.176;5.714;2023-08-24T10:31:02;34.00;47.40
10121;DHT22;5100;45.176;5.714;2023-08-24T10:33:30;34.00;47.30
10121;DHT22;5100;45.176;5.714;2023-08-24T10:35:58;34.00;47.40
10121;DHT22;5100;45.176;5.714;2023-08-24T10:38:25;34.10;47.40
10121;DHT22;5100;45.176;5.714;2023-08-24T10:40:53;34.10;47.20
10121;DHT22;5100;45.176;5.714;2023-08-24T10:43:19;34.10;46.90
10121;DHT22;5100;45.176;5.714;2023-08-24T10:45:59;34.10;46.80
10121;DHT22;5100;45.176;5.714;2023-08-24T10:48:28;34.20;46.90
10121;DHT22;5100;45.176;5.714;2023-08-24T10:54:05;34.20;47.00
10121;DHT22;5100;45.176;5.714;2023-08-24T10:56:37;34.20;47.10
10121;DHT22;5100;45.176;5.714;2023-08-24T10:59:16;34.30;47.20
10121;DHT22;5100;45.176;5.714;2023-08-24T11:01:54;34.30;47.20
10121;DHT22;5100;45.176;5.714;2023-08-24T11:04:20;34.30;47.10
10121;DHT22;5100;45.176;5.714;2023-08-24T11:06:53;34.30;47.00
10121;DHT22;5100;45.176;5.714;2023-08-24T11:09:20;34.40;46.90
10121;DHT22;5100;45.176;5.714;2023-08-24T11:12:02;34.40;46.80
10121;DHT22;5100;45.176;5.714;2023-08-24T11:14:31;34.40;46.90
10121;DHT22;5100;45.176;5.714;2023-08-24T11:17:00;34.40;47.00
10121;DHT22;5100;45.176;5.714;2023-08-24T11:19:28;34.40;47.10
10121;DHT22;5100;45.176;5.714;2023-08-24T11:21:56;34.50;47.10
10121;DHT22;5100;45.176;5.714;2023-08-24T11:24:23;34.50;47.10
10121;DHT22;5100;45.176;5.714;2023-08-24T11:26:50;34.50;47.00
10121;DHT22;5100;45.176;5.714;2023-08-24T11:29:17;34.50;47.00
10121;DHT22;5100;45.176;5.714;2023-08-24T11:31:47;34.60;47.00
10121;DHT22;5100;45.176;5.714;2023-08-24T11:34:15;34.60;47.00
10121;DHT22;5100;45.176;5.714;2023-08-24T11:36:47;34.70;46.90
10121;DHT22;5100;45.176;5.714;2023-08-24T11:39:20;34.70;46.60
10121;DHT22;5100;45.176;5.714;2023-08-24T11:42:02;34.70;46.60
10121;DHT22;5100;45.176;5.714;2023-08-24T11:44:30;34.80;46.30
10121;DHT22;5100;45.176;5.714;2023-08-24T11:46:57;34.80;46.30
10121;DHT22;5100;45.176;5.714;2023-08-24T11:49:24;34.80;46.50
10121;DHT22;5100;45.176;5.714;2023-08-24T11:51:51;34.90;46.40
10121;DHT22;5100;45.176;5.714;2023-08-24T11:54:19;34.90;46.20
10121;DHT22;5100;45.176;5.714;2023-08-24T11:56:45;34.90;46.20
10121;DHT22;5100;45.176;5.714;2023-08-24T11:59:16;34.90;46.10
10121;DHT22;5100;45.176;5.714;2023-08-24T12:01:43;35.00;45.90
10121;DHT22;5100;45.176;5.714;2023-08-24T12:04:13;35.10;45.80
10121;DHT22;5100;45.176;5.714;2023-08-24T12:06:39;35.10;45.60
10121;DHT22;5100;45.176;5.714;2023-08-24T12:09:06;35.10;45.60
10121;DHT22;5100;45.176;5.714;2023-08-24T12:11:37;35.20;45.30
10121;DHT22;5100;45.176;5.714;2023-08-24T12:14:03;35.20;45.30
10121;DHT22;5100;45.176;5.714;2023-08-24T12:16:32;35.20;45.20
10121;DHT22;5100;45.176;5.714;2023-08-24T12:19:00;35.30;45.20
10121;DHT22;5100;45.176;5.714;2023-08-24T12:21:29;35.30;45.10
10121;DHT22;5100;45.176;5.714;2023-08-24T12:24:03;35.40;44.90
10121;DHT22;5100;45.176;5.714;2023-08-24T12:26:33;35.40;44.70
10121;DHT22;5100;45.176;5.714;2023-08-24T12:29:04;35.40;44.60
10121;DHT22;5100;45.176;5.714;2023-08-24T12:31:31;35.40;44.50
10121;DHT22;5100;45.176;5.714;2023-08-24T12:34:03;35.50;44.60
10121;DHT22;5100;45.176;5.714;2023-08-24T12:36:31;35.50;44.70
10121;DHT22;5100;45.176;5.714;2023-08-24T12:38:58;35.50;44.30
10121;DHT22;5100;45.176;5.714;2023-08-24T12:41:24;35.50;44.30
10121;DHT22;5100;45.176;5.714;2023-08-24T12:43:51;35.60;44.30
10121;DHT22;5100;45.176;5.714;2023-08-24T12:46:17;35.60;44.30
10121;DHT22;5100;45.176;5.714;2023-08-24T12:48:44;35.60;44.10
10121;DHT22;5100;45.176;5.714;2023-08-24T12:51:09;35.60;44.00
10121;DHT22;5100;45.176;5.714;2023-08-24T12:53:35;35.60;43.90
10121;DHT22;5100;45.176;5.714;2023-08-24T12:56:02;35.70;43.50
10121;DHT22;5100;45.176;5.714;2023-08-24T12:58:28;35.70;43.50
10121;DHT22;5100;45.176;5.714;2023-08-24T13:00:54;35.70;43.70
10121;DHT22;5100;45.176;5.714;2023-08-24T13:03:20;35.70;43.70
10121;DHT22;5100;45.176;5.714;2023-08-24T13:05:46;35.70;43.60
10121;DHT22;5100;45.176;5.714;2023-08-24T13:08:13;35.70;43.50
10121;DHT22;5100;45.176;5.714;2023-08-24T13:10:39;35.70;43.60
10121;DHT22;5100;45.176;5.714;2023-08-24T13:13:05;35.70;43.50
10121;DHT22;5100;45.176;5.714;2023-08-24T13:15:31;35.70;43.40
10121;DHT22;5100;45.176;5.714;2023-08-24T13:17:57;35.80;43.40
10121;DHT22;5100;45.176;5.714;2023-08-24T13:20:24;35.80;43.30
10121;DHT22;5100;45.176;5.714;2023-08-24T13:22:54;35.80;43.20
10121;DHT22;5100;45.176;5.714;2023-08-24T13:25:20;35.80;43.00
10121;DHT22;5100;45.176;5.714;2023-08-24T13:27:46;35.80;42.90
10121;DHT22;5100;45.176;5.714;2023-08-24T13:30:13;35.90;42.70
10121;DHT22;5100;45.176;5.714;2023-08-24T13:32:39;35.90;42.70
10121;DHT22;5100;45.176;5.714;2023-08-24T13:35:05;35.90;42.50
10121;DHT22;5100;45.176;5.714;2023-08-24T13:37:31;36.00;42.40
10121;DHT22;5100;45.176;5.714;2023-08-24T13:40:01;36.00;42.30
10121;DHT22;5100;45.176;5.714;2023-08-24T13:42:27;36.00;42.10
10121;DHT22;5100;45.176;5.714;2023-08-24T13:44:53;36.00;41.90
10121;DHT22;5100;45.176;5.714;2023-08-24T13:47:19;36.10;41.90
10121;DHT22;5100;45.176;5.714;2023-08-24T13:49:47;36.10;41.90
10121;DHT22;5100;45.176;5.714;2023-08-24T13:52:14;36.10;41.90
10121;DHT22;5100;45.176;5.714;2023-08-24T13:54:42;36.10;41.90
10121;DHT22;5100;45.176;5.714;2023-08-24T13:57:08;36.10;41.80
10121;DHT22;5100;45.176;5.714;2023-08-24T13:59:34;36.20;41.80
10121;DHT22;5100;45.176;5.714;2023-08-24T14:02:01;36.20;41.90
10121;DHT22;5100;45.176;5.714;2023-08-24T14:04:27;36.20;41.90
10121;DHT22;5100;45.176;5.714;2023-08-24T14:06:53;36.20;41.80
10121;DHT22;5100;45.176;5.714;2023-08-24T14:09:19;36.20;41.70
10121;DHT22;5100;45.176;5.714;2023-08-24T14:11:45;36.30;41.60
10121;DHT22;5100;45.176;5.714;2023-08-24T14:14:12;36.30;41.60
10121;DHT22;5100;45.176;5.714;2023-08-24T14:16:38;36.30;41.50
10121;DHT22;5100;45.176;5.714;2023-08-24T14:19:04;36.30;41.40
10121;DHT22;5100;45.176;5.714;2023-08-24T14:21:30;36.40;41.40
10121;DHT22;5100;45.176;5.714;2023-08-24T14:23:57;36.40;41.50
10121;DHT22;5100;45.176;5.714;2023-08-24T14:26:24;36.40;41.50
10121;DHT22;5100;45.176;5.714;2023-08-24T14:31:21;36.40;41.20
10121;DHT22;5100;45.176;5.714;2023-08-24T14:33:47;36.50;41.20
10121;DHT22;5100;45.176;5.714;2023-08-24T14:36:13;36.50;40.80
10121;DHT22;5100;45.176;5.714;2023-08-24T14:38:40;36.50;40.60
10121;DHT22;5100;45.176;5.714;2023-08-24T14:41:08;36.50;40.60
10121;DHT22;5100;45.176;5.714;2023-08-24T14:43:34;36.50;40.70
10121;DHT22;5100;45.176;5.714;2023-08-24T14:46:00;36.50;40.70
10121;DHT22;5100;45.176;5.714;2023-08-24T14:48:27;36.60;40.70
10121;DHT22;5100;45.176;5.714;2023-08-24T14:50:52;36.60;40.50
10121;DHT22;5100;45.176;5.714;2023-08-24T14:53:18;36.60;40.30
10121;DHT22;5100;45.176;5.714;2023-08-24T14:55:45;36.60;40.40
10121;DHT22;5100;45.176;5.714;2023-08-24T14:58:11;36.60;40.40
10121;DHT22;5100;45.176;5.714;2023-08-24T15:00:37;36.60;40.40
10121;DHT22;5100;45.176;5.714;2023-08-24T15:03:03;36.60;40.50
10121;DHT22;5100;45.176;5.714;2023-08-24T15:05:29;36.60;40.60
10121;DHT22;5100;45.176;5.714;2023-08-24T15:07:55;36.60;40.60
10121;DHT22;5100;45.176;5.714;2023-08-24T15:10:22;36.70;40.40
10121;DHT22;5100;45.176;5.714;2023-08-24T15:12:48;36.70;40.50
10121;DHT22;5100;45.176;5.714;2023-08-24T15:15:14;36.70;40.30
10121;DHT22;5100;45.176;5.714;2023-08-24T15:17:44;36.70;40.30
10121;DHT22;5100;45.176;5.714;2023-08-24T15:20:13;36.80;40.70
10121;DHT22;5100;45.176;5.714;2023-08-24T15:22:39;36.80;40.50
10121;DHT22;5100;45.176;5.714;2023-08-24T15:25:07;36.80;40.60
10121;DHT22;5100;45.176;5.714;2023-08-24T15:27:33;36.80;40.80
10121;DHT22;5100;45.176;5.714;2023-08-24T15:29:59;36.90;40.60
10121;DHT22;5100;45.176;5.714;2023-08-24T15:32:27;36.90;40.40
10121;DHT22;5100;45.176;5.714;2023-08-24T15:34:53;36.90;40.10
10121;DHT22;5100;45.176;5.714;2023-08-24T15:37:20;36.90;40.20
10121;DHT22;5100;45.176;5.714;2023-08-24T15:39:46;36.90;40.20
10121;DHT22;5100;45.176;5.714;2023-08-24T15:42:13;36.90;40.20
10121;DHT22;5100;45.176;5.714;2023-08-24T15:44:38;36.90;40.20
10121;DHT22;5100;45.176;5.714;2023-08-24T15:47:05;36.90;40.10
10121;DHT22;5100;45.176;5.714;2023-08-24T15:49:31;36.90;40.10
10121;DHT22;5100;45.176;5.714;2023-08-24T15:51:57;36.90;40.10
10121;DHT22;5100;45.176;5.714;2023-08-24T15:54:23;36.90;39.90
10121;DHT22;5100;45.176;5.714;2023-08-24T15:56:51;36.90;39.90
10121;DHT22;5100;45.176;5.714;2023-08-24T15:59:18;36.90;39.70